createdAt,value
2017-07-31T00:00:55.886Z,19.30
2017-07-31T00:03:23.791Z,19.30
2017-07-31T00:05:51.387Z,19.30
2017-07-31T00:08:19.461Z,19.10
2017-07-31T00:10:47.531Z,19.00
2017-07-31T00:13:15.039Z,19.00
2017-07-31T00:15:42.749Z,19.00
2017-07-31T00:18:10.256Z,19.00
2017-07-31T00:20:37.799Z,19.00
2017-07-31T00:23:05.291Z,19.00
2017-07-31T00:25:32.868Z,19.00
2017-07-31T00:28:00.514Z,19.10
2017-07-31T00:30:28.028Z,19.10
2017-07-31T00:32:55.630Z,19.10
2017-07-31T00:35:23.896Z,19.10
2017-07-31T00:37:51.575Z,19.20
2017-07-31T00:40:19.234Z,19.30
2017-07-31T00:42:46.758Z,19.30
2017-07-31T00:45:14.335Z,19.30
2017-07-31T00:47:41.899Z,19.30
2017-07-31T00:50:09.405Z,19.10
2017-07-31T00:52:37.013Z,19.10
2017-07-31T00:55:04.538Z,19.00
2017-07-31T00:57:32.646Z,19.00
2017-07-31T01:00:00.306Z,19.00
2017-07-31T01:04:56.845Z,18.90
2017-07-31T01:07:24.355Z,18.90
2017-07-31T01:09:52.658Z,18.90
2017-07-31T01:12:20.218Z,18.80
2017-07-31T01:14:47.747Z,18.70
2017-07-31T01:17:16.159Z,18.70
2017-07-31T01:19:43.822Z,18.60
2017-07-31T01:22:11.890Z,18.50
2017-07-31T01:24:39.554Z,18.40
2017-07-31T01:27:07.074Z,18.40
2017-07-31T01:29:35.340Z,18.40
2017-07-31T01:32:03.739Z,18.40
2017-07-31T01:34:31.299Z,18.50
2017-07-31T01:36:59.680Z,18.50
2017-07-31T01:39:27.197Z,18.60
2017-07-31T01:41:55.486Z,18.60
2017-07-31T01:44:22.999Z,18.60
2017-07-31T01:46:50.730Z,18.70
2017-07-31T01:49:18.388Z,18.70
2017-07-31T01:51:45.919Z,18.70
2017-07-31T01:54:13.427Z,18.70
2017-07-31T01:56:40.964Z,18.60
2017-07-31T01:59:08.627Z,18.40
2017-07-31T02:01:36.905Z,18.40
2017-07-31T02:04:04.435Z,18.40
2017-07-31T02:06:32.326Z,18.40
2017-07-31T02:08:59.863Z,18.30
2017-07-31T02:11:27.523Z,18.30
2017-07-31T02:13:55.044Z,18.20
2017-07-31T02:16:24.066Z,18.20
2017-07-31T02:18:51.590Z,18.30
2017-07-31T02:23:48.894Z,18.40
2017-07-31T02:26:16.558Z,18.50
2017-07-31T02:28:44.190Z,18.50
2017-07-31T02:31:12.875Z,18.50
2017-07-31T02:33:40.370Z,18.40
2017-07-31T02:36:08.651Z,18.40
2017-07-31T02:38:36.274Z,18.40
2017-07-31T02:41:04.752Z,18.40
2017-07-31T02:43:32.514Z,18.40
2017-07-31T02:46:00.170Z,18.40
2017-07-31T02:48:27.840Z,18.40
2017-07-31T02:50:56.146Z,18.30
2017-07-31T02:53:24.087Z,18.40
2017-07-31T02:55:51.610Z,18.40
2017-07-31T02:58:19.107Z,18.40
2017-07-31T03:00:46.830Z,18.30
2017-07-31T03:03:14.491Z,18.40
2017-07-31T03:05:42.159Z,18.40
2017-07-31T03:08:10.432Z,18.40
2017-07-31T03:10:37.931Z,18.40
2017-07-31T03:13:06.605Z,18.40
2017-07-31T03:15:34.206Z,18.40
2017-07-31T03:18:03.230Z,18.40
2017-07-31T03:20:30.763Z,18.40
2017-07-31T03:22:59.446Z,18.30
2017-07-31T03:25:27.719Z,18.30
2017-07-31T03:27:55.793Z,18.40
2017-07-31T03:30:23.456Z,18.50
2017-07-31T03:32:50.982Z,18.50
2017-07-31T03:35:19.250Z,18.40
2017-07-31T03:37:47.538Z,18.50
2017-07-31T03:40:15.047Z,18.40
2017-07-31T03:42:42.555Z,18.40
2017-07-31T03:50:07.981Z,18.50
2017-07-31T03:52:36.098Z,18.40
2017-07-31T03:55:03.717Z,18.40
2017-07-31T03:57:31.386Z,18.40
2017-07-31T03:59:58.906Z,18.40
2017-07-31T04:02:27.534Z,18.40
2017-07-31T04:04:55.185Z,18.40
2017-07-31T04:07:22.849Z,18.40
2017-07-31T04:09:50.509Z,18.40
2017-07-31T04:12:18.172Z,18.40
2017-07-31T04:14:46.472Z,18.40
2017-07-31T04:17:14.074Z,18.40
2017-07-31T04:19:41.590Z,18.40
2017-07-31T04:22:09.196Z,18.50
2017-07-31T04:24:36.708Z,18.50
2017-07-31T04:27:05.007Z,18.60
2017-07-31T04:29:32.547Z,18.60
2017-07-31T04:32:00.251Z,18.70
2017-07-31T04:34:27.765Z,18.70
2017-07-31T04:36:56.054Z,18.80
2017-07-31T04:39:23.547Z,18.80
2017-07-31T04:41:51.071Z,18.80
2017-07-31T04:44:18.567Z,18.90
2017-07-31T04:46:46.106Z,18.90
2017-07-31T04:49:14.470Z,18.90
2017-07-31T04:51:42.747Z,19.00
2017-07-31T04:54:11.771Z,19.10
2017-07-31T04:56:39.282Z,19.10
2017-07-31T04:59:06.948Z,19.10
2017-07-31T05:01:34.606Z,19.00
2017-07-31T05:04:02.131Z,19.00
2017-07-31T05:06:29.621Z,19.00
2017-07-31T05:08:57.914Z,19.10
2017-07-31T05:13:54.332Z,19.20
2017-07-31T05:16:21.978Z,19.20
2017-07-31T05:18:49.639Z,19.20
2017-07-31T05:21:17.304Z,19.30
2017-07-31T05:23:44.962Z,19.40
2017-07-31T05:26:13.255Z,19.40
2017-07-31T05:28:40.764Z,19.60
2017-07-31T05:31:09.054Z,19.60
2017-07-31T05:33:36.976Z,19.60
2017-07-31T05:36:05.263Z,19.60
2017-07-31T05:38:33.059Z,19.70
2017-07-31T05:41:00.592Z,19.70
2017-07-31T05:43:28.101Z,19.90
2017-07-31T05:45:56.406Z,20.00
2017-07-31T05:48:24.683Z,20.20
2017-07-31T05:50:53.732Z,20.40
2017-07-31T05:53:21.243Z,20.60
2017-07-31T05:55:49.158Z,20.90
2017-07-31T05:58:16.697Z,21.10
2017-07-31T06:00:44.201Z,21.20
2017-07-31T06:03:11.820Z,21.40
2017-07-31T06:05:39.340Z,21.50
2017-07-31T06:08:07.640Z,21.60
2017-07-31T06:10:35.142Z,21.70
2017-07-31T06:13:02.696Z,21.90
2017-07-31T06:15:30.637Z,22.00
2017-07-31T06:17:59.303Z,22.50
2017-07-31T06:20:26.862Z,22.70
2017-07-31T06:22:54.759Z,22.80
2017-07-31T06:25:22.340Z,22.80
2017-07-31T06:27:49.847Z,22.80
2017-07-31T06:30:17.766Z,22.90
2017-07-31T06:37:44.132Z,23.50
2017-07-31T06:40:11.666Z,23.90
2017-07-31T06:42:39.935Z,24.10
2017-07-31T06:45:08.220Z,24.40
2017-07-31T06:47:36.570Z,24.90
2017-07-31T06:50:04.075Z,25.70
2017-07-31T06:52:33.103Z,26.40
2017-07-31T06:55:01.007Z,26.60
2017-07-31T06:57:28.923Z,26.90
2017-07-31T06:59:56.421Z,27.00
2017-07-31T07:02:25.081Z,27.70
2017-07-31T07:04:52.582Z,28.10
2017-07-31T07:07:20.100Z,27.90
2017-07-31T07:09:47.647Z,27.70
2017-07-31T07:12:15.158Z,27.30
2017-07-31T07:14:42.660Z,26.70
2017-07-31T07:17:10.179Z,26.40
2017-07-31T07:19:38.067Z,26.90
2017-07-31T07:22:05.566Z,27.50
2017-07-31T07:24:34.595Z,28.00
2017-07-31T07:27:02.113Z,28.30
2017-07-31T07:29:30.762Z,28.50
2017-07-31T07:31:58.669Z,28.80
2017-07-31T07:34:27.331Z,29.40
2017-07-31T07:36:55.599Z,29.70
2017-07-31T07:39:23.503Z,29.90
2017-07-31T07:41:50.999Z,30.00
2017-07-31T07:44:18.547Z,30.10
2017-07-31T07:46:46.039Z,30.10
2017-07-31T07:49:14.694Z,29.90
2017-07-31T07:51:42.227Z,29.60
2017-07-31T07:54:11.251Z,29.60
2017-07-31T08:01:36.511Z,30.00
2017-07-31T08:04:05.146Z,30.40
2017-07-31T08:06:32.758Z,30.70
2017-07-31T08:09:00.294Z,30.70
2017-07-31T08:11:29.007Z,30.50
2017-07-31T08:13:57.284Z,30.80
2017-07-31T08:16:25.626Z,31.40
2017-07-31T08:18:54.026Z,31.60
2017-07-31T08:21:21.539Z,31.50
2017-07-31T08:23:49.051Z,31.30
2017-07-31T08:26:16.584Z,31.10
2017-07-31T08:28:44.274Z,31.00
2017-07-31T08:31:13.512Z,30.90
2017-07-31T08:33:42.538Z,31.10
2017-07-31T08:36:10.269Z,31.40
2017-07-31T08:38:38.927Z,31.90
2017-07-31T08:41:06.579Z,32.80
2017-07-31T08:43:34.107Z,33.60
2017-07-31T08:46:01.608Z,33.90
2017-07-31T08:48:29.139Z,34.30
2017-07-31T08:50:56.638Z,34.60
2017-07-31T08:55:53.010Z,34.30
2017-07-31T08:58:20.531Z,34.10
2017-07-31T09:00:48.036Z,34.10
2017-07-31T09:03:15.577Z,34.00
2017-07-31T09:05:43.142Z,33.90
2017-07-31T09:08:11.051Z,34.20
2017-07-31T09:10:38.586Z,34.40
2017-07-31T09:13:06.090Z,34.30
2017-07-31T09:15:33.631Z,34.50
2017-07-31T09:18:02.648Z,35.00
2017-07-31T09:20:31.319Z,35.70
2017-07-31T09:22:59.598Z,36.00
2017-07-31T09:25:27.131Z,36.40
2017-07-31T09:27:55.437Z,36.70
2017-07-31T09:30:22.952Z,36.80
2017-07-31T09:32:50.457Z,36.90
2017-07-31T09:35:17.995Z,36.90
2017-07-31T09:37:46.272Z,36.70
2017-07-31T09:40:13.819Z,36.30
2017-07-31T09:42:41.310Z,36.10
2017-07-31T09:45:08.825Z,36.40
2017-07-31T09:47:36.357Z,36.40
2017-07-31T09:50:03.863Z,36.40
2017-07-31T09:52:32.151Z,36.60
2017-07-31T09:54:59.668Z,36.70
2017-07-31T09:57:27.191Z,36.60
2017-07-31T09:59:55.467Z,37.00
2017-07-31T10:02:22.990Z,37.30
2017-07-31T10:04:50.494Z,37.70
2017-07-31T10:07:18.780Z,37.70
2017-07-31T10:09:46.667Z,37.70
2017-07-31T10:12:14.946Z,37.80
2017-07-31T10:14:42.467Z,37.40
2017-07-31T10:17:09.960Z,37.10
2017-07-31T10:19:37.509Z,36.90
2017-07-31T10:22:05.006Z,36.90
2017-07-31T10:24:33.663Z,36.90
2017-07-31T10:27:01.180Z,37.30
2017-07-31T10:29:28.762Z,37.40
2017-07-31T10:31:56.266Z,37.20
2017-07-31T10:34:23.826Z,36.70
2017-07-31T10:36:52.102Z,36.60
2017-07-31T10:39:20.415Z,36.40
2017-07-31T10:41:47.915Z,36.60
2017-07-31T10:44:15.807Z,36.30
2017-07-31T10:46:43.334Z,35.60
2017-07-31T10:49:11.229Z,34.90
2017-07-31T10:51:38.763Z,34.30
2017-07-31T10:54:06.287Z,33.80
2017-07-31T10:56:33.802Z,33.20
2017-07-31T10:59:01.303Z,32.50
2017-07-31T11:01:29.957Z,32.00
2017-07-31T11:03:57.456Z,31.60
2017-07-31T11:06:24.996Z,31.20
2017-07-31T11:08:53.627Z,31.10
2017-07-31T11:11:21.147Z,30.90
2017-07-31T11:13:48.642Z,30.70
2017-07-31T11:16:16.192Z,30.60
2017-07-31T11:18:43.691Z,30.40
2017-07-31T11:21:11.962Z,30.10
2017-07-31T11:23:40.620Z,29.90
2017-07-31T11:26:09.260Z,29.80
2017-07-31T11:28:37.172Z,29.70
2017-07-31T11:31:04.691Z,29.60
2017-07-31T11:33:32.603Z,29.50
2017-07-31T11:36:00.869Z,29.50
2017-07-31T11:38:28.400Z,29.40
2017-07-31T11:40:55.899Z,29.50
2017-07-31T11:43:23.823Z,29.60
2017-07-31T11:45:51.319Z,29.60
2017-07-31T11:48:18.840Z,29.70
2017-07-31T11:50:46.335Z,29.80
2017-07-31T11:53:13.857Z,30.00
2017-07-31T11:55:41.363Z,30.10
2017-07-31T11:58:09.998Z,30.20
2017-07-31T12:00:37.526Z,30.40
2017-07-31T12:03:05.055Z,30.40
2017-07-31T12:05:33.362Z,30.30
2017-07-31T12:08:00.854Z,30.10
2017-07-31T12:10:28.383Z,30.00
2017-07-31T12:12:55.924Z,29.80
2017-07-31T12:15:23.467Z,29.70
2017-07-31T12:17:51.742Z,29.40
2017-07-31T12:20:19.265Z,29.30
2017-07-31T12:22:47.498Z,29.20
2017-07-31T12:25:15.854Z,29.20
2017-07-31T12:27:44.123Z,29.10
2017-07-31T12:30:12.023Z,29.00
2017-07-31T12:32:39.552Z,28.90
2017-07-31T12:35:07.067Z,29.00
2017-07-31T12:37:34.603Z,29.00
2017-07-31T12:40:02.103Z,29.00
2017-07-31T12:44:58.884Z,29.10
2017-07-31T12:47:26.419Z,29.10
2017-07-31T12:49:54.688Z,29.00
2017-07-31T12:52:22.983Z,28.90
2017-07-31T12:54:50.883Z,28.90
2017-07-31T12:57:18.424Z,28.90
2017-07-31T12:59:46.331Z,28.80
2017-07-31T13:02:13.827Z,28.90
2017-07-31T13:04:42.110Z,28.80
2017-07-31T13:07:10.371Z,28.80
2017-07-31T13:09:38.287Z,28.90
2017-07-31T13:12:06.872Z,28.90
2017-07-31T13:14:35.163Z,29.00
2017-07-31T13:17:03.798Z,28.90
2017-07-31T13:19:31.339Z,28.90
2017-07-31T13:21:58.851Z,29.00
2017-07-31T13:24:26.801Z,28.90
2017-07-31T13:26:54.316Z,29.00
2017-07-31T13:29:21.838Z,29.00
2017-07-31T13:31:49.378Z,29.00
2017-07-31T13:34:18.423Z,29.10
2017-07-31T13:36:46.340Z,29.30
2017-07-31T13:39:13.867Z,29.20
2017-07-31T13:41:41.407Z,29.20
2017-07-31T13:44:08.913Z,29.20
2017-07-31T13:46:37.212Z,29.20
2017-07-31T13:49:05.150Z,29.20
2017-07-31T13:51:32.683Z,29.20
2017-07-31T13:54:00.574Z,29.10
2017-07-31T13:56:29.582Z,29.20
2017-07-31T13:58:57.155Z,29.20
2017-07-31T14:01:24.663Z,29.30
2017-07-31T14:03:52.191Z,29.30
2017-07-31T14:06:19.687Z,29.30
2017-07-31T14:08:47.969Z,29.30
2017-07-31T14:11:15.887Z,29.30
2017-07-31T14:13:43.409Z,29.30
2017-07-31T14:16:10.980Z,29.30
2017-07-31T14:18:39.271Z,29.40
2017-07-31T14:21:07.171Z,29.40
2017-07-31T14:23:35.454Z,29.40
2017-07-31T14:26:02.968Z,29.50
2017-07-31T14:28:30.480Z,29.50
2017-07-31T14:30:58.783Z,29.50
2017-07-31T14:33:26.293Z,29.40
2017-07-31T14:35:53.832Z,29.40
2017-07-31T14:38:22.108Z,29.40
2017-07-31T14:40:51.137Z,29.20
2017-07-31T14:43:18.639Z,29.20
2017-07-31T14:45:46.563Z,29.10
2017-07-31T14:48:14.065Z,29.20
2017-07-31T14:50:41.599Z,29.20
2017-07-31T14:53:09.883Z,29.20
2017-07-31T14:55:37.416Z,29.30
2017-07-31T14:58:04.922Z,29.40
2017-07-31T15:00:33.595Z,29.40
2017-07-31T15:03:01.105Z,29.40
2017-07-31T15:05:29.380Z,29.30
2017-07-31T15:07:57.667Z,29.30
2017-07-31T15:10:25.173Z,29.30
2017-07-31T15:12:53.115Z,29.40
2017-07-31T15:15:20.623Z,29.30
2017-07-31T15:17:48.139Z,29.40
2017-07-31T15:20:16.419Z,29.40
2017-07-31T15:22:43.942Z,29.40
2017-07-31T15:25:11.844Z,29.50
2017-07-31T15:27:39.387Z,29.50
2017-07-31T15:30:06.895Z,29.50
2017-07-31T15:32:34.418Z,29.40
2017-07-31T15:35:02.311Z,29.40
2017-07-31T15:37:29.834Z,29.30
2017-07-31T15:39:57.362Z,29.20
2017-07-31T15:42:24.852Z,29.20
2017-07-31T15:44:52.381Z,29.20
2017-07-31T15:47:20.654Z,29.30
2017-07-31T15:49:49.316Z,29.30
2017-07-31T15:52:16.815Z,29.20
2017-07-31T15:54:44.734Z,29.20
2017-07-31T15:57:12.239Z,29.10
2017-07-31T15:59:39.763Z,29.00
2017-07-31T16:02:07.659Z,29.00
2017-07-31T16:04:35.251Z,29.00
2017-07-31T16:07:02.766Z,29.00
2017-07-31T16:09:30.268Z,29.10
2017-07-31T16:11:57.795Z,29.10
2017-07-31T16:14:25.335Z,29.00
2017-07-31T16:16:53.260Z,28.90
2017-07-31T16:19:20.751Z,28.80
2017-07-31T16:21:48.301Z,28.70
2017-07-31T16:24:17.939Z,28.70
2017-07-31T16:26:45.466Z,28.60
2017-07-31T16:29:13.376Z,28.50
2017-07-31T16:31:40.893Z,28.50
2017-07-31T16:34:08.424Z,28.40
2017-07-31T16:36:36.698Z,28.40
2017-07-31T16:39:25.562Z,28.40
2017-07-31T16:42:00.791Z,28.40
2017-07-31T16:44:47.948Z,28.40
2017-07-31T16:47:23.435Z,28.40
2017-07-31T16:49:52.654Z,28.50
2017-07-31T16:52:20.148Z,28.60
2017-07-31T16:54:47.670Z,28.60
2017-07-31T16:57:15.175Z,28.60
2017-07-31T16:59:42.690Z,28.60
2017-07-31T17:02:10.959Z,28.60
2017-07-31T17:04:38.888Z,28.60
2017-07-31T17:07:06.393Z,28.60
2017-07-31T17:09:33.927Z,28.60
2017-07-31T17:12:01.437Z,28.50
2017-07-31T17:14:28.943Z,28.40
2017-07-31T17:16:56.461Z,28.30
2017-07-31T17:19:23.965Z,28.20
2017-07-31T17:21:51.495Z,28.10
2017-07-31T17:24:20.519Z,28.10
2017-07-31T17:26:48.040Z,28.00
2017-07-31T17:29:16.682Z,28.00
2017-07-31T17:31:44.211Z,28.00
2017-07-31T17:34:11.730Z,27.90
2017-07-31T17:36:39.690Z,27.90
2017-07-31T17:39:07.965Z,27.90
2017-07-31T17:41:36.239Z,27.80
2017-07-31T17:44:04.534Z,27.80
2017-07-31T17:46:32.055Z,27.80
2017-07-31T17:48:59.992Z,27.80
2017-07-31T17:51:27.498Z,27.70
2017-07-31T17:53:55.040Z,27.70
2017-07-31T17:56:23.331Z,27.70
2017-07-31T17:58:50.864Z,27.60
2017-07-31T18:01:19.138Z,27.50
2017-07-31T18:03:47.434Z,27.50
2017-07-31T18:06:15.707Z,27.40
2017-07-31T18:08:43.235Z,27.40
2017-07-31T18:11:11.135Z,27.30
2017-07-31T18:13:38.645Z,27.30
2017-07-31T18:16:06.166Z,27.30
2017-07-31T18:18:33.667Z,27.20
2017-07-31T18:21:01.191Z,27.20
2017-07-31T18:23:28.706Z,27.20
2017-07-31T18:25:56.619Z,27.20
2017-07-31T18:28:24.882Z,27.20
2017-07-31T18:30:52.412Z,27.20
2017-07-31T18:35:48.786Z,27.00
2017-07-31T18:38:16.689Z,27.00
2017-07-31T18:40:44.983Z,27.00
2017-07-31T18:43:12.884Z,26.90
2017-07-31T18:45:40.408Z,26.80
2017-07-31T18:48:07.931Z,26.70
2017-07-31T18:50:36.196Z,26.60
2017-07-31T18:53:03.719Z,26.50
2017-07-31T18:55:31.668Z,26.30
2017-07-31T18:57:59.286Z,26.30
2017-07-31T19:00:26.785Z,26.20
2017-07-31T19:02:55.082Z,26.20
2017-07-31T19:05:22.579Z,26.10
2017-07-31T19:07:50.117Z,26.00
2017-07-31T19:10:18.416Z,26.00
2017-07-31T19:12:45.968Z,26.00
2017-07-31T19:15:13.483Z,26.00
2017-07-31T19:17:40.987Z,26.00
2017-07-31T19:20:08.518Z,25.90
2017-07-31T19:22:36.410Z,25.90
2017-07-31T19:25:03.948Z,25.80
2017-07-31T19:27:31.464Z,25.70
2017-07-31T19:29:58.994Z,25.60
2017-07-31T19:32:28.016Z,25.60
2017-07-31T19:34:55.539Z,25.40
2017-07-31T19:37:23.042Z,25.40
2017-07-31T19:39:51.343Z,25.30
2017-07-31T19:42:18.834Z,25.20
2017-07-31T19:44:46.340Z,25.20
2017-07-31T19:47:14.631Z,25.20
2017-07-31T19:49:42.156Z,25.10
2017-07-31T19:52:09.683Z,25.10
2017-07-31T19:54:37.956Z,25.10
2017-07-31T19:57:05.487Z,25.10
2017-07-31T19:59:33.407Z,25.00
2017-07-31T20:02:01.336Z,25.00
2017-07-31T20:04:29.976Z,25.00
2017-07-31T20:06:57.508Z,24.90
2017-07-31T20:09:26.528Z,24.90
2017-07-31T20:11:54.050Z,24.90
2017-07-31T20:14:23.063Z,24.90
2017-07-31T20:16:51.331Z,24.90
2017-07-31T20:19:19.614Z,24.90
2017-07-31T20:21:47.887Z,24.90
2017-07-31T20:24:16.918Z,24.90
2017-07-31T20:26:44.433Z,24.80
2017-07-31T20:29:12.739Z,24.80
2017-07-31T20:34:09.870Z,24.80
2017-07-31T20:36:38.503Z,24.80
2017-07-31T20:41:36.002Z,24.80
2017-07-31T20:44:03.567Z,24.80
2017-07-31T20:46:32.208Z,24.70
2017-07-31T20:48:59.846Z,24.60
2017-07-31T20:51:28.881Z,24.60
2017-07-31T20:53:56.395Z,24.60
2017-07-31T20:56:24.702Z,24.60
2017-07-31T20:58:52.368Z,24.50
2017-07-31T21:01:19.991Z,24.40
2017-07-31T21:03:47.647Z,24.40
2017-07-31T21:06:15.595Z,24.40
2017-07-31T21:08:43.155Z,24.30
2017-07-31T21:11:10.698Z,24.20
2017-07-31T21:13:38.959Z,24.20
2017-07-31T21:18:35.504Z,24.20
2017-07-31T21:21:03.783Z,24.10
2017-07-31T21:23:32.827Z,24.10
2017-07-31T21:26:01.111Z,24.10
2017-07-31T21:28:29.479Z,24.00
2017-07-31T21:30:56.999Z,23.90
2017-07-31T21:33:24.518Z,23.90
2017-07-31T21:35:52.794Z,23.80
2017-07-31T21:38:21.619Z,23.80
2017-07-31T21:40:50.102Z,23.70
2017-07-31T21:48:15.544Z,23.70
2017-07-31T21:50:43.096Z,23.70
2017-07-31T21:53:10.644Z,23.70
2017-07-31T21:55:38.166Z,23.50
2017-07-31T21:58:06.562Z,23.50
2017-07-31T22:00:34.654Z,23.60
2017-07-31T22:03:03.303Z,23.60
2017-07-31T22:05:30.827Z,23.60
2017-07-31T22:07:58.339Z,23.50
2017-07-31T22:10:25.892Z,23.40
2017-07-31T22:12:53.423Z,23.50
2017-07-31T22:15:20.963Z,23.40
2017-07-31T22:17:54.258Z,23.40
2017-07-31T22:22:56.682Z,23.30
2017-07-31T22:27:53.235Z,23.30
2017-07-31T22:30:20.899Z,23.20
2017-07-31T22:32:48.550Z,23.20
2017-07-31T22:35:16.056Z,23.10
2017-07-31T22:37:44.058Z,23.10
2017-07-31T22:40:11.573Z,23.10
2017-07-31T22:42:39.485Z,23.00
2017-07-31T22:45:07.001Z,23.00
2017-07-31T22:47:34.700Z,23.00
2017-07-31T22:50:02.598Z,23.00
2017-07-31T22:52:30.227Z,22.90
2017-07-31T22:54:57.882Z,22.80
2017-07-31T22:57:25.787Z,22.70
2017-07-31T22:59:54.066Z,22.70
2017-07-31T23:02:21.578Z,22.70
2017-07-31T23:04:49.124Z,22.70
2017-07-31T23:07:17.415Z,22.70
2017-07-31T23:09:45.464Z,22.60
2017-07-31T23:12:13.367Z,22.50
2017-07-31T23:14:41.404Z,22.50
2017-07-31T23:17:09.308Z,22.50
2017-07-31T23:22:05.818Z,22.50
2017-07-31T23:24:33.404Z,22.40
2017-07-31T23:27:00.937Z,22.50
2017-07-31T23:31:57.463Z,22.50
2017-07-31T23:34:24.986Z,22.40
2017-07-31T23:36:53.395Z,22.30
2017-07-31T23:39:21.677Z,22.30
2017-07-31T23:41:49.982Z,22.20
2017-07-31T23:44:17.614Z,22.20
2017-07-31T23:46:45.283Z,22.20
2017-07-31T23:49:12.943Z,22.20
2017-07-31T23:51:40.468Z,22.20
2017-07-31T23:54:07.991Z,22.10
2017-07-31T23:56:35.886Z,22.10
2017-07-31T23:59:03.560Z,22.10
